createdAt,value
2019-01-02T00:01:56.690Z,3.90
2019-01-02T00:04:23.326Z,3.90
2019-01-02T00:06:49.894Z,3.90
2019-01-02T00:09:16.475Z,3.90
2019-01-02T00:11:42.998Z,3.90
2019-01-02T00:14:09.563Z,3.90
2019-01-02T00:16:36.141Z,3.90
2019-01-02T00:19:02.720Z,3.90
2019-01-02T00:21:29.658Z,3.90
2019-01-02T00:23:56.222Z,3.90
2019-01-02T00:26:22.962Z,3.90
2019-01-02T00:28:49.541Z,3.90
2019-01-02T00:31:16.371Z,4.00
2019-01-02T00:33:42.950Z,4.00
2019-01-02T00:36:09.876Z,3.90
2019-01-02T00:38:36.550Z,3.80
2019-01-02T00:41:03.582Z,3.80
2019-01-02T00:43:30.242Z,3.80
2019-01-02T00:45:56.999Z,3.80
2019-01-02T00:48:23.976Z,3.80
2019-01-02T00:50:50.911Z,3.90
2019-01-02T00:53:17.591Z,3.90
2019-01-02T00:55:44.534Z,3.70
2019-01-02T00:58:11.087Z,3.80
2019-01-02T01:00:37.823Z,3.90
2019-01-02T01:03:05.195Z,4.00
2019-01-02T01:05:32.433Z,3.90
2019-01-02T01:07:59.594Z,4.00
2019-01-02T01:10:26.236Z,4.00
2019-01-02T01:12:52.807Z,4.00
2019-01-02T01:15:19.246Z,4.00
2019-01-02T01:17:45.824Z,4.00
2019-01-02T01:20:15.448Z,4.10
2019-01-02T01:22:42.021Z,4.10
2019-01-02T01:25:08.665Z,4.20
2019-01-02T01:27:36.134Z,4.20
2019-01-02T01:30:05.962Z,4.20
2019-01-02T01:32:32.691Z,4.20
2019-01-02T01:34:59.237Z,4.30
2019-01-02T01:37:25.876Z,4.30
2019-01-02T01:39:52.502Z,4.20
2019-01-02T01:42:19.336Z,4.20
2019-01-02T01:44:45.803Z,4.30
2019-01-02T01:47:12.735Z,4.30
2019-01-02T01:49:39.298Z,4.20
2019-01-02T01:52:06.047Z,4.20
2019-01-02T01:54:32.921Z,4.30
2019-01-02T01:56:59.346Z,4.30
2019-01-02T01:59:26.318Z,4.30
2019-01-02T02:01:52.855Z,4.40
2019-01-02T02:04:19.419Z,4.40
2019-01-02T02:06:46.148Z,4.40
2019-01-02T02:09:12.710Z,4.40
2019-01-02T02:11:41.251Z,4.40
2019-01-02T02:14:07.706Z,4.40
2019-01-02T02:16:34.233Z,4.50
2019-01-02T02:19:02.612Z,4.50
2019-01-02T02:21:29.249Z,4.50
2019-01-02T02:23:56.278Z,4.50
2019-01-02T02:26:22.915Z,4.50
2019-01-02T02:28:49.582Z,4.50
2019-01-02T02:31:16.315Z,4.40
2019-01-02T02:33:43.292Z,4.50
2019-01-02T02:36:10.335Z,4.40
2019-01-02T02:38:37.299Z,4.40
2019-01-02T02:41:04.231Z,4.50
2019-01-02T02:43:31.195Z,4.40
2019-01-02T02:45:57.839Z,4.40
2019-01-02T02:48:24.811Z,4.40
2019-01-02T02:50:51.647Z,4.50
2019-01-02T02:53:18.526Z,4.50
2019-01-02T02:55:45.359Z,4.60
2019-01-02T02:58:12.127Z,4.60
2019-01-02T03:00:38.973Z,4.40
2019-01-02T03:03:06.029Z,4.20
2019-01-02T03:05:32.749Z,4.10
2019-01-02T03:07:59.410Z,4.10
2019-01-02T03:10:26.448Z,4.10
2019-01-02T03:12:53.384Z,4.20
2019-01-02T03:15:20.254Z,4.20
2019-01-02T03:17:46.775Z,4.20
2019-01-02T03:20:14.453Z,4.20
2019-01-02T03:22:41.383Z,4.30
2019-01-02T03:25:10.148Z,4.40
2019-01-02T03:27:36.982Z,4.40
2019-01-02T03:30:10.350Z,4.50
2019-01-02T03:32:37.191Z,4.50
2019-01-02T03:35:06.580Z,4.60
2019-01-02T03:37:33.210Z,4.60
2019-01-02T03:39:59.991Z,4.60
2019-01-02T03:42:26.619Z,4.60
2019-01-02T03:44:53.190Z,4.70
2019-01-02T03:47:19.831Z,4.70
2019-01-02T03:49:46.524Z,4.60
2019-01-02T03:52:13.159Z,4.60
2019-01-02T03:54:39.731Z,4.70
2019-01-02T03:57:07.275Z,4.70
2019-01-02T03:59:33.947Z,4.70
2019-01-02T04:02:00.483Z,4.70
2019-01-02T04:04:27.151Z,4.70
2019-01-02T04:06:53.790Z,4.70
2019-01-02T04:09:20.448Z,4.80
2019-01-02T04:11:47.890Z,4.60
2019-01-02T04:14:14.539Z,4.70
2019-01-02T04:16:41.188Z,4.70
2019-01-02T04:19:07.938Z,4.70
2019-01-02T04:21:34.576Z,4.60
2019-01-02T04:24:01.214Z,4.60
2019-01-02T04:26:27.971Z,4.60
2019-01-02T04:28:54.604Z,4.60
2019-01-02T04:31:21.276Z,4.60
2019-01-02T04:33:47.899Z,4.60
2019-01-02T04:36:14.462Z,4.50
2019-01-02T04:38:41.103Z,4.30
2019-01-02T04:41:07.811Z,4.20
2019-01-02T04:43:34.450Z,4.00
2019-01-02T04:46:01.003Z,4.00
2019-01-02T04:48:27.541Z,3.90
2019-01-02T04:50:54.199Z,3.80
2019-01-02T04:53:20.978Z,4.00
2019-01-02T04:55:47.548Z,4.00
2019-01-02T04:58:14.085Z,4.10
2019-01-02T05:00:41.153Z,4.10
2019-01-02T05:03:08.586Z,4.10
2019-01-02T05:05:35.245Z,4.10
2019-01-02T05:08:02.791Z,4.10
2019-01-02T05:10:29.458Z,4.10
2019-01-02T05:12:56.080Z,4.10
2019-01-02T05:15:22.660Z,4.10
2019-01-02T05:17:49.978Z,4.10
2019-01-02T05:20:16.652Z,4.00
2019-01-02T05:22:43.311Z,4.00
2019-01-02T05:25:09.982Z,4.00
2019-01-02T05:27:38.219Z,4.00
2019-01-02T05:30:13.506Z,4.00
2019-01-02T05:32:40.150Z,4.00
2019-01-02T05:35:07.686Z,4.00
2019-01-02T05:37:34.256Z,4.00
2019-01-02T05:40:00.792Z,4.00
2019-01-02T05:42:27.364Z,3.90
2019-01-02T05:44:53.896Z,3.90
2019-01-02T05:47:20.459Z,4.00
2019-01-02T05:49:46.889Z,4.00
2019-01-02T05:52:13.454Z,4.10
2019-01-02T05:54:40.095Z,4.10
2019-01-02T05:57:07.364Z,4.10
2019-01-02T05:59:33.896Z,4.10
2019-01-02T06:02:00.465Z,4.10
2019-01-02T06:04:27.093Z,4.20
2019-01-02T06:06:53.686Z,4.20
2019-01-02T06:09:21.130Z,4.20
2019-01-02T06:11:47.813Z,4.20
2019-01-02T06:14:14.425Z,4.20
2019-01-02T06:16:41.167Z,4.30
2019-01-02T06:19:07.796Z,4.30
2019-01-02T06:21:35.030Z,4.30
2019-01-02T06:24:03.263Z,4.30
2019-01-02T06:26:29.933Z,4.20
2019-01-02T06:28:56.964Z,3.70
2019-01-02T06:31:23.624Z,3.50
2019-01-02T06:33:50.259Z,3.40
2019-01-02T06:36:16.844Z,3.50
2019-01-02T06:38:43.368Z,3.60
2019-01-02T06:41:09.934Z,3.70
2019-01-02T06:43:36.470Z,3.70
2019-01-02T06:46:03.298Z,3.80
2019-01-02T06:48:29.876Z,3.80
2019-01-02T06:50:56.414Z,3.90
2019-01-02T06:53:22.990Z,3.90
2019-01-02T06:55:49.536Z,3.90
2019-01-02T06:58:16.081Z,3.90
2019-01-02T07:00:42.935Z,3.80
2019-01-02T07:03:10.507Z,3.80
2019-01-02T07:05:37.175Z,3.80
2019-01-02T07:08:04.251Z,3.80
2019-01-02T07:10:30.883Z,3.70
2019-01-02T07:12:57.558Z,3.80
2019-01-02T07:15:24.196Z,3.70
2019-01-02T07:17:50.694Z,3.70
2019-01-02T07:20:17.239Z,3.70
2019-01-02T07:22:43.906Z,3.70
2019-01-02T07:25:10.446Z,3.80
2019-01-02T07:27:36.907Z,3.80
2019-01-02T07:30:07.232Z,3.80
2019-01-02T07:32:33.789Z,3.80
2019-01-02T07:35:20.523Z,3.80
2019-01-02T07:37:54.026Z,3.80
2019-01-02T07:40:24.358Z,3.80
2019-01-02T07:43:12.864Z,3.80
2019-01-02T07:45:55.225Z,3.90
2019-01-02T07:48:31.999Z,3.90
2019-01-02T07:51:14.628Z,3.80
2019-01-02T07:53:48.959Z,3.90
2019-01-02T07:56:39.867Z,3.80
2019-01-02T07:59:22.145Z,3.90
2019-01-02T08:01:55.466Z,3.80
2019-01-02T08:04:40.743Z,3.80
2019-01-02T08:07:29.262Z,3.90
2019-01-02T08:10:02.573Z,3.90
2019-01-02T08:12:44.583Z,3.80
2019-01-02T08:15:30.117Z,3.80
2019-01-02T08:18:29.729Z,3.70
2019-01-02T08:21:33.402Z,3.70
2019-01-02T08:24:09.850Z,3.70
2019-01-02T08:27:01.035Z,3.70
2019-01-02T08:29:48.018Z,3.60
2019-01-02T08:32:36.511Z,3.70
2019-01-02T08:35:10.924Z,3.60
2019-01-02T08:37:53.058Z,3.60
2019-01-02T08:40:39.833Z,3.60
2019-01-02T08:43:19.371Z,3.60
2019-01-02T08:46:04.624Z,3.60
2019-01-02T08:48:37.696Z,3.60
2019-01-02T08:51:29.265Z,3.60
2019-01-02T08:54:19.069Z,3.60
2019-01-02T08:57:02.039Z,3.70
2019-01-02T08:59:35.220Z,3.60
2019-01-02T09:02:17.056Z,3.60
2019-01-02T09:04:47.487Z,3.60
2019-01-02T09:07:34.343Z,3.60
2019-01-02T09:10:19.781Z,3.60
2019-01-02T09:13:06.712Z,3.70
2019-01-02T09:15:49.210Z,3.70
2019-01-02T09:18:28.663Z,3.70
2019-01-02T09:21:16.318Z,3.70
2019-01-02T09:24:10.482Z,3.70
2019-01-02T09:26:46.642Z,3.70
2019-01-02T09:29:36.247Z,3.70
2019-01-02T09:32:13.049Z,3.80
2019-01-02T09:34:55.182Z,3.80
2019-01-02T09:37:31.417Z,3.70
2019-01-02T09:40:10.831Z,3.80
2019-01-02T09:42:54.019Z,3.80
2019-01-02T09:45:39.606Z,3.90
2019-01-02T09:48:26.655Z,3.90
2019-01-02T09:51:13.716Z,3.90
2019-01-02T09:54:00.811Z,3.90
2019-01-02T09:56:46.528Z,3.80
2019-01-02T09:59:16.964Z,3.90
2019-01-02T10:02:02.243Z,3.90
2019-01-02T10:04:35.262Z,3.90
2019-01-02T10:07:08.443Z,3.80
2019-01-02T10:09:41.603Z,3.90
2019-01-02T10:12:23.808Z,3.90
2019-01-02T10:14:57.106Z,3.80
2019-01-02T10:17:32.760Z,3.90
2019-01-02T10:20:24.105Z,3.90
2019-01-02T10:23:09.404Z,3.90
2019-01-02T10:25:49.996Z,4.00
2019-01-02T10:28:35.387Z,4.00
2019-01-02T10:31:08.831Z,3.90
2019-01-02T10:33:42.416Z,4.00
2019-01-02T10:36:15.637Z,4.00
2019-01-02T10:39:04.089Z,4.10
2019-01-02T10:41:43.494Z,4.10
2019-01-02T10:44:30.311Z,4.10
2019-01-02T10:47:06.536Z,4.10
2019-01-02T10:49:39.927Z,4.10
2019-01-02T10:52:21.919Z,4.10
2019-01-02T10:54:55.070Z,4.00
2019-01-02T10:57:46.631Z,4.00
2019-01-02T11:00:44.167Z,4.00
2019-01-02T11:03:21.683Z,4.10
2019-01-02T11:06:00.892Z,4.10
2019-01-02T11:08:59.684Z,4.30
2019-01-02T11:11:50.333Z,4.40
2019-01-02T11:14:40.086Z,4.30
2019-01-02T11:17:13.158Z,4.20
2019-01-02T11:19:46.376Z,4.20
2019-01-02T11:22:17.315Z,4.30
2019-01-02T11:24:48.574Z,4.20
2019-01-02T11:27:30.732Z,4.20
2019-01-02T11:30:34.294Z,4.10
2019-01-02T11:33:37.868Z,4.10
2019-01-02T11:36:10.660Z,4.20
2019-01-02T11:38:53.153Z,4.40
2019-01-02T11:41:27.083Z,4.40
2019-01-02T11:44:09.686Z,4.40
2019-01-02T11:46:36.116Z,4.30
2019-01-02T11:49:02.556Z,4.30
2019-01-02T11:51:29.219Z,4.30
2019-01-02T11:53:55.761Z,4.30
2019-01-02T11:56:22.342Z,4.30
2019-01-02T11:58:50.029Z,4.30
2019-01-02T12:01:16.793Z,4.30
2019-01-02T12:03:43.550Z,4.20
2019-01-02T12:06:10.214Z,4.20
2019-01-02T12:08:36.849Z,4.20
2019-01-02T12:11:03.459Z,4.20
2019-01-02T12:13:29.989Z,4.00
2019-01-02T12:15:56.575Z,4.10
2019-01-02T12:18:23.119Z,4.10
2019-01-02T12:20:49.804Z,4.00
2019-01-02T12:23:16.443Z,4.00
2019-01-02T12:25:43.140Z,4.00
2019-01-02T12:28:09.681Z,3.90
2019-01-02T12:30:36.317Z,4.00
2019-01-02T12:33:03.004Z,4.10
2019-01-02T12:35:29.597Z,4.00
2019-01-02T12:37:56.472Z,4.00
2019-01-02T12:40:23.039Z,4.00
2019-01-02T12:42:49.620Z,3.90
2019-01-02T12:45:20.087Z,4.00
2019-01-02T12:47:48.374Z,4.00
2019-01-02T12:50:15.057Z,4.00
2019-01-02T12:52:43.342Z,3.90
2019-01-02T12:55:09.979Z,3.90
2019-01-02T12:57:36.675Z,4.00
2019-01-02T13:00:07.010Z,4.10
2019-01-02T13:02:43.319Z,4.10
2019-01-02T13:05:31.504Z,4.20
2019-01-02T13:08:18.661Z,4.20
2019-01-02T13:10:49.090Z,4.30
2019-01-02T13:13:25.330Z,4.40
2019-01-02T13:16:04.545Z,4.70
2019-01-02T13:18:34.972Z,4.70
2019-01-02T13:21:08.175Z,4.60
2019-01-02T13:23:50.247Z,4.60
2019-01-02T13:26:20.691Z,4.60
2019-01-02T13:28:59.499Z,4.70
2019-01-02T13:31:41.820Z,4.80
2019-01-02T13:34:30.360Z,4.80
2019-01-02T13:37:03.527Z,5.10
2019-01-02T13:39:59.664Z,5.20
2019-01-02T13:42:38.850Z,5.10
2019-01-02T13:45:18.347Z,4.90
2019-01-02T13:47:57.597Z,5.00
2019-01-02T13:50:39.726Z,5.00
2019-01-02T13:53:06.323Z,5.10
2019-01-02T13:55:32.870Z,5.10
2019-01-02T13:57:59.508Z,5.00
2019-01-02T14:00:26.099Z,5.20
2019-01-02T14:02:52.635Z,5.20
2019-01-02T14:05:21.077Z,5.20
2019-01-02T14:07:47.768Z,5.00
2019-01-02T14:10:14.298Z,4.90
2019-01-02T14:12:41.886Z,4.80
2019-01-02T14:15:09.519Z,4.90
2019-01-02T14:17:36.160Z,4.90
2019-01-02T14:20:05.244Z,4.80
2019-01-02T14:22:31.828Z,4.70
2019-01-02T14:24:58.422Z,4.60
2019-01-02T14:27:25.209Z,4.40
2019-01-02T14:29:51.796Z,4.40
2019-01-02T14:32:18.480Z,4.40
2019-01-02T14:34:45.051Z,4.20
2019-01-02T14:37:11.682Z,4.10
2019-01-02T14:39:38.270Z,4.00
2019-01-02T14:42:04.809Z,3.90
2019-01-02T14:44:31.343Z,3.80
2019-01-02T14:46:57.931Z,3.70
2019-01-02T14:49:24.511Z,3.70
2019-01-02T14:51:51.043Z,3.60
2019-01-02T14:54:17.608Z,3.50
2019-01-02T14:56:44.186Z,3.50
2019-01-02T14:59:10.804Z,3.50
2019-01-02T15:01:37.388Z,3.50
2019-01-02T15:04:03.924Z,3.40
2019-01-02T15:06:30.499Z,3.40
2019-01-02T15:08:57.020Z,3.40
2019-01-02T15:11:23.710Z,3.30
2019-01-02T15:13:50.346Z,3.30
2019-01-02T15:16:16.920Z,3.30
2019-01-02T15:18:43.609Z,3.30
2019-01-02T15:21:10.145Z,3.30
2019-01-02T15:23:36.579Z,3.20
2019-01-02T15:26:03.162Z,3.20
2019-01-02T15:28:29.700Z,3.20
2019-01-02T15:30:56.289Z,3.10
2019-01-02T15:33:23.047Z,3.10
2019-01-02T15:35:49.733Z,3.10
2019-01-02T15:38:16.474Z,3.10
2019-01-02T15:40:43.111Z,3.20
2019-01-02T15:43:09.794Z,3.10
2019-01-02T15:45:36.826Z,3.20
2019-01-02T15:48:03.457Z,3.10
2019-01-02T15:50:30.182Z,3.20
2019-01-02T15:52:56.697Z,3.10
2019-01-02T15:55:23.375Z,3.10
2019-01-02T15:57:50.019Z,3.20
2019-01-02T16:00:16.751Z,3.10
2019-01-02T16:02:43.401Z,3.10
2019-01-02T16:05:10.083Z,3.10
2019-01-02T16:07:36.668Z,3.10
2019-01-02T16:10:05.051Z,3.10
2019-01-02T16:12:31.843Z,3.10
2019-01-02T16:14:58.519Z,3.10
2019-01-02T16:17:25.203Z,3.10
2019-01-02T16:19:51.748Z,3.10
2019-01-02T16:22:18.326Z,3.10
2019-01-02T16:24:44.860Z,3.10
2019-01-02T16:27:11.547Z,3.00
2019-01-02T16:29:38.943Z,3.00
2019-01-02T16:32:05.579Z,3.10
2019-01-02T16:34:32.252Z,3.10
2019-01-02T16:36:58.907Z,3.10
2019-01-02T16:39:25.494Z,3.10
2019-01-02T16:41:52.028Z,3.10
2019-01-02T16:44:18.595Z,3.20
2019-01-02T16:46:45.283Z,3.10
2019-01-02T16:49:11.818Z,3.10
2019-01-02T16:51:38.515Z,3.10
2019-01-02T16:54:06.740Z,3.00
2019-01-02T16:56:33.429Z,3.10
2019-01-02T16:58:59.958Z,3.00
2019-01-02T17:01:26.535Z,3.00
2019-01-02T17:03:53.166Z,3.10
2019-01-02T17:06:19.994Z,3.00
2019-01-02T17:08:46.583Z,3.10
2019-01-02T17:11:13.119Z,3.10
2019-01-02T17:13:39.816Z,3.00
2019-01-02T17:16:06.453Z,3.00
2019-01-02T17:18:33.654Z,3.00
2019-01-02T17:21:01.218Z,3.00
2019-01-02T17:23:27.804Z,3.00
2019-01-02T17:25:54.484Z,3.00
2019-01-02T17:28:21.119Z,3.00
2019-01-02T17:30:47.702Z,3.00
2019-01-02T17:33:14.410Z,3.00
2019-01-02T17:35:40.991Z,3.00
2019-01-02T17:38:08.159Z,3.00
2019-01-02T17:40:34.842Z,3.00
2019-01-02T17:43:01.367Z,3.00
2019-01-02T17:45:27.859Z,3.00
2019-01-02T17:47:54.472Z,3.00
2019-01-02T17:50:21.955Z,3.00
2019-01-02T17:52:48.694Z,3.00
2019-01-02T17:55:16.456Z,3.00
2019-01-02T17:57:42.991Z,3.00
2019-01-02T18:00:10.072Z,3.00
2019-01-02T18:02:36.643Z,3.00
2019-01-02T18:05:03.418Z,3.00
2019-01-02T18:07:30.052Z,3.00
2019-01-02T18:09:56.636Z,3.00
2019-01-02T18:12:23.190Z,3.00
2019-01-02T18:14:49.860Z,3.10
2019-01-02T18:17:16.440Z,3.00
2019-01-02T18:19:43.180Z,3.00
2019-01-02T18:22:09.748Z,3.00
2019-01-02T18:24:36.337Z,3.00
2019-01-02T18:27:04.038Z,3.10
2019-01-02T18:29:30.788Z,3.00
2019-01-02T18:31:58.228Z,3.00
2019-01-02T18:34:24.777Z,3.00
2019-01-02T18:36:51.365Z,3.00
2019-01-02T18:39:17.979Z,3.00
2019-01-02T18:41:45.067Z,3.10
2019-01-02T18:44:11.632Z,3.10
2019-01-02T18:46:38.220Z,3.00
2019-01-02T18:49:06.451Z,3.00
2019-01-02T18:51:33.469Z,3.00
2019-01-02T18:54:01.756Z,3.00
2019-01-02T18:56:28.378Z,3.00
2019-01-02T18:58:55.087Z,3.10
2019-01-02T19:01:21.698Z,2.90
2019-01-02T19:03:48.356Z,3.00
2019-01-02T19:06:14.997Z,3.00
2019-01-02T19:08:41.678Z,3.00
2019-01-02T19:11:08.214Z,2.90
2019-01-02T19:13:34.904Z,2.90
2019-01-02T19:16:01.655Z,3.00
2019-01-02T19:18:28.292Z,3.00
2019-01-02T19:20:54.874Z,2.90
2019-01-02T19:23:22.418Z,2.80
2019-01-02T19:25:49.000Z,2.60
2019-01-02T19:28:15.636Z,2.60
2019-01-02T19:30:42.336Z,2.40
2019-01-02T19:33:08.967Z,2.40
2019-01-02T19:35:35.536Z,2.50
2019-01-02T19:38:02.126Z,2.30
2019-01-02T19:40:28.661Z,2.30
2019-01-02T19:42:55.291Z,2.30
2019-01-02T19:45:22.148Z,2.20
2019-01-02T19:47:48.759Z,2.30
2019-01-02T19:50:15.243Z,2.20
2019-01-02T19:52:41.937Z,2.10
2019-01-02T19:55:08.676Z,2.10
2019-01-02T19:57:35.415Z,2.10
2019-01-02T20:00:04.999Z,2.00
2019-01-02T20:02:32.011Z,2.10
2019-01-02T20:04:58.551Z,2.10
2019-01-02T20:07:25.136Z,2.00
2019-01-02T20:09:51.722Z,2.10
2019-01-02T20:12:18.758Z,2.10
2019-01-02T20:14:45.316Z,2.10
2019-01-02T20:17:11.874Z,2.20
2019-01-02T20:19:38.473Z,2.20
2019-01-02T20:22:05.105Z,2.20
2019-01-02T20:24:31.774Z,2.10
2019-01-02T20:26:58.416Z,2.10
2019-01-02T20:29:25.456Z,2.20
2019-01-02T20:31:52.118Z,2.20
2019-01-02T20:34:18.748Z,2.10
2019-01-02T20:36:45.437Z,2.10
2019-01-02T20:39:12.043Z,2.10
2019-01-02T20:41:38.564Z,2.20
2019-01-02T20:44:05.167Z,2.10
2019-01-02T20:46:31.919Z,2.10
2019-01-02T20:48:58.629Z,2.10
2019-01-02T20:51:25.319Z,2.20
2019-01-02T20:53:51.968Z,2.20
2019-01-02T20:56:18.455Z,2.20
2019-01-02T20:58:45.096Z,2.20
2019-01-02T21:01:11.687Z,2.20
2019-01-02T21:03:38.269Z,2.20
2019-01-02T21:06:04.894Z,2.10
2019-01-02T21:08:32.283Z,2.00
2019-01-02T21:10:59.807Z,2.10
2019-01-02T21:13:27.249Z,1.90
2019-01-02T21:15:54.070Z,2.00
2019-01-02T21:18:20.700Z,2.00
2019-01-02T21:20:47.320Z,2.00
2019-01-02T21:23:14.004Z,2.00
2019-01-02T21:25:40.609Z,2.00
2019-01-02T21:28:07.147Z,2.00
2019-01-02T21:30:33.787Z,2.10
2019-01-02T21:33:00.341Z,2.10
2019-01-02T21:35:27.163Z,2.00
2019-01-02T21:37:53.875Z,2.00
2019-01-02T21:40:20.566Z,2.00
2019-01-02T21:42:47.111Z,2.00
2019-01-02T21:45:13.729Z,1.90
2019-01-02T21:47:40.257Z,2.00
2019-01-02T21:50:07.256Z,2.00
2019-01-02T21:52:33.844Z,2.00
2019-01-02T21:55:00.498Z,1.90
2019-01-02T21:57:26.932Z,1.90
2019-01-02T21:59:53.491Z,1.80
2019-01-02T22:02:20.072Z,1.90
2019-01-02T22:04:46.675Z,1.80
2019-01-02T22:07:13.310Z,1.70
2019-01-02T22:09:39.886Z,1.80
2019-01-02T22:12:06.470Z,1.70
2019-01-02T22:14:33.158Z,1.70
2019-01-02T22:16:59.706Z,1.80
2019-01-02T22:19:26.299Z,1.90
2019-01-02T22:21:52.835Z,1.80
2019-01-02T22:24:19.439Z,1.90
2019-01-02T22:26:46.079Z,1.80
2019-01-02T22:29:13.515Z,1.80
2019-01-02T22:31:40.205Z,1.70
2019-01-02T22:34:06.678Z,1.60
2019-01-02T22:36:33.301Z,1.40
2019-01-02T22:38:59.932Z,1.50
2019-01-02T22:41:27.640Z,1.50
2019-01-02T22:43:54.197Z,1.20
2019-01-02T22:46:20.791Z,1.10
2019-01-02T22:48:47.429Z,0.90
2019-01-02T22:51:14.109Z,0.90
2019-01-02T22:53:40.756Z,1.00
2019-01-02T22:56:07.429Z,1.20
2019-01-02T22:58:34.115Z,1.10
2019-01-02T23:01:08.840Z,0.90
2019-01-02T23:03:40.155Z,0.90
2019-01-02T23:09:19.718Z,0.70
2019-01-02T23:12:04.480Z,0.50
2019-01-02T23:14:33.086Z,0.40
2019-01-02T23:17:21.408Z,0.30
2019-01-02T23:20:07.916Z,0.20
2019-01-02T23:22:48.338Z,0.30
2019-01-02T23:25:35.058Z,0.50
2019-01-02T23:28:06.188Z,0.50
2019-01-02T23:30:37.687Z,0.30
2019-01-02T23:33:18.100Z,0.20
2019-01-02T23:35:46.674Z,0.20
2019-01-02T23:38:34.367Z,0.20
2019-01-02T23:41:02.913Z,0.00
2019-01-02T23:43:31.394Z,0.20
2019-01-02T23:46:08.776Z,0.10
2019-01-02T23:48:42.796Z,0.10
2019-01-02T23:51:19.915Z,0.10
2019-01-02T23:53:48.495Z,0.10
2019-01-02T23:56:31.795Z,0.10
2019-01-02T23:59:03.122Z,0.00
